createdAt,value
2023-03-20T00:01:24.364Z,96116.03
2023-03-20T00:03:54.951Z,96110.00
2023-03-20T00:06:25.634Z,96127.75
2023-03-20T00:08:57.584Z,96114.28
2023-03-20T00:11:33.281Z,96115.84
2023-03-20T00:14:04.119Z,96116.44
2023-03-20T00:16:34.738Z,96116.94
2023-03-20T00:19:05.314Z,96099.59
2023-03-20T00:21:34.510Z,96115.41
2023-03-20T00:24:03.101Z,96107.75
2023-03-20T00:26:35.582Z,96116.72
2023-03-20T00:29:05.718Z,96113.97
2023-03-20T00:31:36.576Z,96111.50
2023-03-20T00:34:08.487Z,96116.63
2023-03-20T00:36:37.414Z,96108.13
2023-03-20T00:39:06.479Z,96110.50
2023-03-20T00:41:46.247Z,96114.69
2023-03-20T00:44:21.988Z,96113.06
2023-03-20T00:47:05.124Z,96107.00
2023-03-20T00:49:36.545Z,96101.19
2023-03-20T00:52:06.266Z,96105.06
2023-03-20T00:54:34.865Z,96103.84
2023-03-20T00:57:04.475Z,96107.28
2023-03-20T00:59:39.276Z,96109.13
2023-03-20T01:02:10.767Z,96106.69
2023-03-20T01:04:42.723Z,96110.91
2023-03-20T01:07:14.705Z,96104.75
2023-03-20T01:09:47.514Z,96113.00
2023-03-20T01:12:17.820Z,96103.41
2023-03-20T01:14:48.314Z,96109.22
2023-03-20T01:17:20.472Z,96105.56
2023-03-20T01:19:53.267Z,96098.69
2023-03-20T01:22:22.114Z,96104.50
2023-03-20T01:24:50.662Z,96096.03
2023-03-20T01:27:21.248Z,96096.94
2023-03-20T01:29:49.870Z,96099.50
2023-03-20T01:32:20.312Z,96096.13
2023-03-20T01:34:50.444Z,96103.00
2023-03-20T01:37:20.424Z,96101.94
2023-03-20T01:39:59.383Z,96095.94
2023-03-20T01:42:27.980Z,96100.22
2023-03-20T01:44:56.547Z,96098.56
2023-03-20T01:47:27.997Z,96102.78
2023-03-20T01:50:22.918Z,96101.13
2023-03-20T01:52:53.631Z,96100.34
2023-03-20T01:55:23.273Z,96106.22
2023-03-20T01:57:53.423Z,96101.94
2023-03-20T02:00:24.081Z,96111.25
2023-03-20T02:02:55.571Z,96103.59
2023-03-20T02:05:26.337Z,96111.03
2023-03-20T02:08:03.625Z,96107.44
2023-03-20T02:10:32.446Z,96102.34
2023-03-20T02:13:01.788Z,96103.97
2023-03-20T02:15:32.031Z,96104.88
2023-03-20T02:18:00.518Z,96104.63
2023-03-20T02:20:41.652Z,96110.16
2023-03-20T02:23:40.353Z,96099.13
2023-03-20T02:26:32.927Z,96100.63
2023-03-20T02:29:45.961Z,96103.28
2023-03-20T02:32:49.979Z,96104.13
2023-03-20T02:35:44.766Z,96098.06
2023-03-20T02:38:25.792Z,96097.88
2023-03-20T02:40:59.440Z,96107.88
2023-03-20T02:43:35.008Z,96100.34
2023-03-20T02:46:09.991Z,96101.13
2023-03-20T02:48:43.736Z,96103.06
2023-03-20T02:51:16.691Z,96100.63
2023-03-20T02:53:52.846Z,96098.06
2023-03-20T02:56:26.465Z,96104.94
2023-03-20T02:58:59.935Z,96097.47
2023-03-20T03:01:33.368Z,96101.06
2023-03-20T03:04:05.288Z,96097.81
2023-03-20T03:06:34.968Z,96103.84
2023-03-20T03:09:07.219Z,96101.28
2023-03-20T03:11:38.325Z,96104.75
2023-03-20T03:14:08.399Z,96101.59
2023-03-20T03:16:38.961Z,96102.84
2023-03-20T03:19:10.675Z,96106.53
2023-03-20T03:21:41.856Z,96109.47
2023-03-20T03:24:37.275Z,96103.75
2023-03-20T03:27:14.257Z,96102.25
2023-03-20T03:29:44.332Z,96104.09
2023-03-20T03:32:25.087Z,96102.56
2023-03-20T03:34:53.821Z,96099.41
2023-03-20T03:37:28.320Z,96103.19
2023-03-20T03:40:05.042Z,96108.38
2023-03-20T03:42:37.136Z,96104.72
2023-03-20T03:45:10.192Z,96103.38
2023-03-20T03:47:41.465Z,96099.28
2023-03-20T03:50:15.808Z,96100.66
2023-03-20T03:52:45.408Z,96107.47
2023-03-20T03:55:17.160Z,96106.97
2023-03-20T03:57:51.505Z,96103.91
2023-03-20T04:00:22.129Z,96104.69
2023-03-20T04:02:53.223Z,96100.53
2023-03-20T04:05:22.364Z,96104.19
2023-03-20T04:07:54.987Z,96098.47
2023-03-20T04:10:25.590Z,96103.56
2023-03-20T04:12:54.251Z,96109.59
2023-03-20T04:15:22.827Z,96104.72
2023-03-20T04:17:51.423Z,96103.88
2023-03-20T04:20:20.218Z,96107.38
2023-03-20T04:22:48.980Z,96109.28
2023-03-20T04:25:21.078Z,96109.41
2023-03-20T04:27:51.546Z,96111.22
2023-03-20T04:30:20.558Z,96109.47
2023-03-20T04:32:49.144Z,96114.66
2023-03-20T04:35:17.871Z,96108.78
2023-03-20T04:37:46.580Z,96110.41
2023-03-20T04:40:15.814Z,96113.78
2023-03-20T04:42:45.207Z,96116.44
2023-03-20T04:45:15.421Z,96123.25
2023-03-20T04:47:43.967Z,96123.63
2023-03-20T04:50:14.172Z,96127.94
2023-03-20T04:52:42.996Z,96133.03
2023-03-20T04:55:11.705Z,96137.50
2023-03-20T04:57:40.365Z,96132.50
2023-03-20T05:00:10.151Z,96130.22
2023-03-20T05:02:40.421Z,96136.25
2023-03-20T05:05:09.666Z,96147.38
2023-03-20T05:07:38.581Z,96140.72
2023-03-20T05:10:07.363Z,96154.09
2023-03-20T05:12:36.171Z,96170.13
2023-03-20T05:15:04.750Z,96174.19
2023-03-20T05:17:33.632Z,96177.47
2023-03-20T05:20:03.301Z,96181.56
2023-03-20T05:22:32.084Z,96177.25
2023-03-20T05:25:01.274Z,96184.09
2023-03-20T05:27:29.942Z,96185.63
2023-03-20T05:30:01.253Z,96192.19
2023-03-20T05:32:30.307Z,96182.59
2023-03-20T05:35:01.587Z,96191.88
2023-03-20T05:37:31.871Z,96198.63
2023-03-20T05:40:00.870Z,96196.06
2023-03-20T05:42:29.807Z,96200.13
2023-03-20T05:44:59.978Z,96203.22
2023-03-20T05:47:28.456Z,96207.50
2023-03-20T05:49:58.221Z,96209.03
2023-03-20T05:52:26.950Z,96212.09
2023-03-20T05:54:57.198Z,96210.19
2023-03-20T05:57:26.112Z,96215.06
2023-03-20T05:59:57.796Z,96216.63
2023-03-20T06:02:26.793Z,96213.66
2023-03-20T06:04:55.760Z,96213.56
2023-03-20T06:07:24.461Z,96216.13
2023-03-20T06:09:52.987Z,96229.50
2023-03-20T06:12:23.794Z,96226.75
2023-03-20T06:14:52.994Z,96230.84
2023-03-20T06:17:21.578Z,96237.28
2023-03-20T06:19:51.014Z,96238.00
2023-03-20T06:22:19.280Z,96239.31
2023-03-20T06:24:47.783Z,96248.50
2023-03-20T06:27:16.522Z,96253.22
2023-03-20T06:29:49.727Z,96257.00
2023-03-20T06:32:19.454Z,96248.22
2023-03-20T06:34:47.785Z,96254.47
2023-03-20T06:37:16.776Z,96253.03
2023-03-20T06:39:45.491Z,96259.28
2023-03-20T06:42:16.158Z,96256.22
2023-03-20T06:44:47.609Z,96260.41
2023-03-20T06:47:16.568Z,96254.13
2023-03-20T06:49:46.013Z,96262.69
2023-03-20T06:52:17.897Z,96259.41
2023-03-20T06:54:56.505Z,96261.75
2023-03-20T06:57:26.218Z,96260.56
2023-03-20T06:59:56.294Z,96254.38
2023-03-20T07:02:25.091Z,96259.66
2023-03-20T07:04:53.709Z,96254.97
2023-03-20T07:07:22.737Z,96252.94
2023-03-20T07:09:51.892Z,96259.50
2023-03-20T07:12:21.176Z,96259.19
2023-03-20T07:14:50.111Z,96265.59
2023-03-20T07:17:20.270Z,96259.38
2023-03-20T07:19:49.204Z,96254.25
2023-03-20T07:22:22.163Z,96259.63
2023-03-20T07:24:50.817Z,96259.50
2023-03-20T07:27:19.547Z,96258.31
2023-03-20T07:29:48.163Z,96259.72
2023-03-20T07:32:16.961Z,96255.69
2023-03-20T07:34:50.511Z,96260.00
2023-03-20T07:37:19.267Z,96261.59
2023-03-20T07:39:48.080Z,96265.72
2023-03-20T07:42:16.888Z,96268.66
2023-03-20T07:44:47.420Z,96264.19
2023-03-20T07:47:16.210Z,96268.06
2023-03-20T07:49:45.221Z,96264.19
2023-03-20T07:52:15.301Z,96265.69
2023-03-20T07:54:43.806Z,96268.66
2023-03-20T07:57:12.507Z,96250.31
2023-03-20T07:59:40.943Z,96263.94
2023-03-20T08:02:11.420Z,96265.50
2023-03-20T08:04:40.392Z,96265.00
2023-03-20T08:07:09.238Z,96269.44
2023-03-20T08:09:39.436Z,96259.66
2023-03-20T08:12:08.471Z,96251.56
2023-03-20T08:14:38.888Z,96254.50
2023-03-20T08:17:14.995Z,96260.16
2023-03-20T08:19:45.561Z,96255.50
2023-03-20T08:22:14.046Z,96254.84
2023-03-20T08:24:43.896Z,96263.03
2023-03-20T08:27:12.689Z,96262.97
2023-03-20T08:29:41.336Z,96269.06
2023-03-20T08:32:10.208Z,96266.34
2023-03-20T08:34:38.562Z,96276.53
2023-03-20T08:37:08.196Z,96268.00
2023-03-20T08:39:37.979Z,96266.56
2023-03-20T08:42:08.432Z,96265.09
2023-03-20T08:44:37.546Z,96264.28
2023-03-20T08:47:31.038Z,96263.59
2023-03-20T08:49:59.612Z,96269.44
2023-03-20T08:52:28.447Z,96263.94
2023-03-20T08:54:57.446Z,96266.69
2023-03-20T08:57:27.467Z,96265.16
2023-03-20T08:59:55.957Z,96263.44
2023-03-20T09:02:24.778Z,96264.81
2023-03-20T09:05:02.644Z,96271.03
2023-03-20T09:07:31.425Z,96261.97
2023-03-20T09:09:59.918Z,96260.22
2023-03-20T09:12:31.864Z,96264.44
2023-03-20T09:15:01.579Z,96266.44
2023-03-20T09:17:31.432Z,96262.91
2023-03-20T09:20:00.170Z,96269.25
2023-03-20T09:22:29.764Z,96264.53
2023-03-20T09:24:58.917Z,96266.13
2023-03-20T09:27:27.807Z,96267.19
2023-03-20T09:29:57.739Z,96265.13
2023-03-20T09:32:26.636Z,96260.16
2023-03-20T09:34:55.770Z,96264.19
2023-03-20T09:37:24.418Z,96263.72
2023-03-20T09:39:52.861Z,96265.47
2023-03-20T09:42:32.248Z,96269.84
2023-03-20T09:45:07.437Z,96271.03
2023-03-20T09:47:40.578Z,96275.03
2023-03-20T09:50:22.577Z,96276.91
2023-03-20T09:52:58.922Z,96271.63
2023-03-20T09:55:34.081Z,96269.13
2023-03-20T09:58:08.570Z,96267.06
2023-03-20T10:00:38.827Z,96263.41
2023-03-20T10:03:13.933Z,96264.63
2023-03-20T10:06:02.492Z,96260.97
2023-03-20T10:08:35.124Z,96275.44
2023-03-20T10:11:12.351Z,96278.56
2023-03-20T10:13:56.223Z,96276.34
2023-03-20T10:16:35.227Z,96268.00
2023-03-20T10:19:09.818Z,96255.44
2023-03-20T10:21:42.233Z,96257.22
2023-03-20T10:24:16.108Z,96261.13
2023-03-20T10:26:44.998Z,96258.25
2023-03-20T10:29:20.548Z,96239.47
2023-03-20T10:31:56.254Z,96246.78
2023-03-20T10:34:35.196Z,96249.88
2023-03-20T10:37:16.726Z,96242.84
2023-03-20T10:39:53.817Z,96253.47
2023-03-20T10:46:02.305Z,96249.16
2023-03-20T10:48:35.414Z,96234.75
2023-03-20T10:51:05.065Z,96229.34
2023-03-20T10:53:37.014Z,96228.38
2023-03-20T10:56:09.127Z,96223.75
2023-03-20T10:58:42.341Z,96217.03
2023-03-20T11:01:11.151Z,96215.16
2023-03-20T11:03:41.855Z,96216.56
2023-03-20T11:06:16.246Z,96221.94
2023-03-20T11:08:49.485Z,96214.78
2023-03-20T11:11:23.563Z,96211.38
2023-03-20T11:13:52.393Z,96215.81
2023-03-20T11:16:23.953Z,96213.97
2023-03-20T11:18:55.366Z,96210.44
2023-03-20T11:21:25.565Z,96209.25
2023-03-20T11:23:54.501Z,96212.28
2023-03-20T11:26:35.814Z,96203.81
2023-03-20T11:29:07.377Z,96208.16
2023-03-20T11:31:38.146Z,96205.91
2023-03-20T11:34:22.685Z,96203.66
2023-03-20T11:37:09.277Z,96206.38
2023-03-20T11:39:41.103Z,96192.38
2023-03-20T11:42:25.038Z,96203.22
2023-03-20T11:45:04.004Z,96200.94
2023-03-20T11:47:35.040Z,96209.06
2023-03-20T11:50:07.478Z,96192.53
2023-03-20T11:52:44.872Z,96187.50
2023-03-20T11:55:28.399Z,96200.47
2023-03-20T11:58:00.688Z,96202.72
2023-03-20T12:00:32.188Z,96184.59
2023-03-20T12:03:01.151Z,96192.47
2023-03-20T12:05:33.825Z,96192.53
2023-03-20T12:08:06.641Z,96193.63
2023-03-20T12:10:39.691Z,96178.06
2023-03-20T12:13:17.201Z,96189.59
2023-03-20T12:15:48.909Z,96180.19
2023-03-20T12:18:21.007Z,96183.09
2023-03-20T12:20:59.667Z,96186.94
2023-03-20T12:23:39.203Z,96187.88
2023-03-20T12:26:11.278Z,96182.97
2023-03-20T12:28:43.148Z,96197.31
2023-03-20T12:31:22.465Z,96192.59
2023-03-20T12:33:55.098Z,96196.25
2023-03-20T12:36:29.882Z,96199.41
2023-03-20T12:38:59.164Z,96204.38
2023-03-20T12:41:31.429Z,96220.66
2023-03-20T12:48:23.044Z,96204.38
2023-03-20T12:50:54.951Z,96205.84
2023-03-20T12:53:38.782Z,96208.66
2023-03-20T12:56:18.521Z,96201.38
2023-03-20T12:58:50.161Z,96200.88
2023-03-20T13:01:34.239Z,96208.72
2023-03-20T13:04:31.153Z,96198.91
2023-03-20T13:07:02.774Z,96194.84
2023-03-20T13:09:59.745Z,96186.34
2023-03-20T13:12:37.776Z,96180.22
2023-03-20T13:15:16.865Z,96191.22
2023-03-20T13:17:52.810Z,96184.09
2023-03-20T13:20:25.345Z,96189.13
2023-03-20T13:23:07.260Z,96191.38
2023-03-20T13:25:53.952Z,96189.75
2023-03-20T13:28:27.394Z,96196.53
2023-03-20T13:30:59.079Z,96190.84
2023-03-20T13:33:40.223Z,96173.44
2023-03-20T13:36:15.760Z,96173.69
2023-03-20T13:38:47.923Z,96174.88
2023-03-20T13:41:18.494Z,96171.97
2023-03-20T13:43:54.486Z,96178.75
2023-03-20T13:46:26.804Z,96182.66
2023-03-20T13:48:58.578Z,96172.41
2023-03-20T13:51:31.193Z,96182.16
2023-03-20T13:54:09.092Z,96175.84
2023-03-20T13:56:47.553Z,96178.44
2023-03-20T13:59:45.016Z,96200.00
2023-03-20T14:02:23.932Z,96174.69
2023-03-20T14:04:57.738Z,96172.31
2023-03-20T14:07:33.897Z,96170.59
2023-03-20T14:10:40.010Z,96185.34
2023-03-20T14:13:14.908Z,96157.84
2023-03-20T14:15:51.106Z,96168.50
2023-03-20T14:18:20.190Z,96161.06
2023-03-20T14:20:55.851Z,96179.91
2023-03-20T14:23:33.810Z,96177.13
2023-03-20T14:26:02.640Z,96175.50
2023-03-20T14:28:34.829Z,96173.41
2023-03-20T14:31:28.039Z,96176.97
2023-03-20T14:34:02.140Z,96178.44
2023-03-20T14:36:32.751Z,96177.28
2023-03-20T14:39:10.084Z,96169.00
2023-03-20T14:41:50.885Z,96177.59
2023-03-20T14:44:27.092Z,96180.38
2023-03-20T14:47:02.002Z,96180.00
2023-03-20T14:49:55.299Z,96176.53
2023-03-20T14:52:47.843Z,96180.47
2023-03-20T14:55:31.711Z,96182.13
2023-03-20T14:58:04.465Z,96164.28
2023-03-20T15:00:38.416Z,96176.00
2023-03-20T15:03:10.589Z,96184.56
2023-03-20T15:05:40.761Z,96175.75
2023-03-20T15:08:11.958Z,96182.63
2023-03-20T15:10:47.948Z,96170.88
2023-03-20T15:14:19.730Z,96182.97
2023-03-20T15:16:50.630Z,96178.47
2023-03-20T15:19:20.496Z,96177.59
2023-03-20T15:21:51.323Z,96172.88
2023-03-20T15:24:23.413Z,96183.88
2023-03-20T15:26:56.347Z,96180.22
2023-03-20T15:29:25.102Z,96180.69
2023-03-20T15:32:12.878Z,96187.00
2023-03-20T15:34:44.346Z,96182.31
2023-03-20T15:37:16.429Z,96184.09
2023-03-20T15:39:49.615Z,96187.59
2023-03-20T15:42:21.526Z,96182.25
2023-03-20T15:44:52.341Z,96181.38
2023-03-20T15:47:24.391Z,96191.69
2023-03-20T15:49:54.636Z,96190.16
2023-03-20T15:52:30.964Z,96187.34
2023-03-20T15:55:01.597Z,96176.22
2023-03-20T15:57:35.661Z,96181.91
2023-03-20T16:00:18.948Z,96189.22
2023-03-20T16:02:49.980Z,96188.81
2023-03-20T16:05:20.703Z,96196.03
2023-03-20T16:07:49.552Z,96190.69
2023-03-20T16:10:19.764Z,96203.56
2023-03-20T16:12:50.777Z,96198.50
2023-03-20T16:15:20.622Z,96193.59
2023-03-20T16:17:51.208Z,96191.00
2023-03-20T16:20:20.372Z,96187.00
2023-03-20T16:22:49.861Z,96189.84
2023-03-20T16:25:20.063Z,96187.94
2023-03-20T16:27:52.980Z,96191.59
2023-03-20T16:30:24.863Z,96196.09
2023-03-20T16:33:00.999Z,96190.13
2023-03-20T16:35:34.080Z,96196.06
2023-03-20T16:38:03.894Z,96200.00
2023-03-20T16:40:36.956Z,96199.75
2023-03-20T16:43:08.526Z,96195.69
2023-03-20T16:45:38.716Z,96210.69
2023-03-20T16:48:26.562Z,96207.16
2023-03-20T16:51:00.722Z,96207.72
2023-03-20T16:53:31.216Z,96210.28
2023-03-20T16:55:59.907Z,96212.69
2023-03-20T16:58:31.076Z,96215.03
2023-03-20T17:01:01.998Z,96218.25
2023-03-20T17:03:38.234Z,96218.78
2023-03-20T17:06:29.622Z,96218.38
2023-03-20T17:09:04.021Z,96222.41
2023-03-20T17:11:35.818Z,96216.31
2023-03-20T17:14:04.714Z,96218.03
2023-03-20T17:16:34.548Z,96219.06
2023-03-20T17:19:07.570Z,96222.56
2023-03-20T17:21:36.299Z,96225.28
2023-03-20T17:24:05.030Z,96222.69
2023-03-20T17:26:34.175Z,96225.63
2023-03-20T17:29:02.967Z,96223.31
2023-03-20T17:31:32.132Z,96234.81
2023-03-20T17:34:01.029Z,96229.06
2023-03-20T17:36:32.904Z,96226.28
2023-03-20T17:39:01.908Z,96228.56
2023-03-20T17:41:30.759Z,96232.72
2023-03-20T17:43:59.581Z,96236.84
2023-03-20T17:46:30.515Z,96236.34
2023-03-20T17:49:01.501Z,96239.28
2023-03-20T17:51:31.752Z,96244.53
2023-03-20T17:54:01.063Z,96240.38
2023-03-20T17:56:33.045Z,96243.84
2023-03-20T17:59:02.493Z,96236.88
2023-03-20T18:01:32.811Z,96243.44
2023-03-20T18:04:01.665Z,96237.97
2023-03-20T18:06:37.154Z,96236.44
2023-03-20T18:09:06.256Z,96247.91
2023-03-20T18:11:35.004Z,96243.25
2023-03-20T18:14:07.008Z,96244.78
2023-03-20T18:16:38.282Z,96251.69
2023-03-20T18:19:07.069Z,96246.22
2023-03-20T18:21:36.968Z,96241.56
2023-03-20T18:24:06.618Z,96249.84
2023-03-20T18:26:35.116Z,96250.75
2023-03-20T18:29:03.983Z,96253.31
2023-03-20T18:31:33.757Z,96250.41
2023-03-20T18:34:02.048Z,96260.78
2023-03-20T18:36:30.490Z,96258.34
2023-03-20T18:39:00.994Z,96250.97
2023-03-20T18:41:29.883Z,96258.44
2023-03-20T18:43:58.464Z,96264.13
2023-03-20T18:46:28.020Z,96256.78
2023-03-20T18:48:58.172Z,96258.16
2023-03-20T18:51:26.759Z,96268.88
2023-03-20T18:53:55.759Z,96261.50
2023-03-20T18:56:34.164Z,96260.25
2023-03-20T18:59:06.662Z,96264.19
2023-03-20T19:01:35.990Z,96259.00
2023-03-20T19:04:06.914Z,96257.72
2023-03-20T19:06:35.575Z,96263.16
2023-03-20T19:09:06.077Z,96258.28
2023-03-20T19:11:36.096Z,96258.41
2023-03-20T19:14:05.246Z,96260.66
2023-03-20T19:16:36.038Z,96259.81
2023-03-20T19:19:06.459Z,96259.31
2023-03-20T19:21:36.049Z,96261.88
2023-03-20T19:24:06.877Z,96270.81
2023-03-20T19:26:38.876Z,96255.19
2023-03-20T19:29:10.810Z,96261.56
2023-03-20T19:31:46.770Z,96258.09
2023-03-20T19:34:44.510Z,96259.22
2023-03-20T19:37:04.286Z,96262.00
2023-03-20T19:39:33.047Z,96257.28
2023-03-20T19:42:37.766Z,96258.47
2023-03-20T19:44:55.332Z,96255.31
2023-03-20T19:47:24.115Z,96259.69
2023-03-20T19:49:52.864Z,96266.25
2023-03-20T19:52:28.771Z,96255.94
2023-03-20T19:55:02.938Z,96257.25
2023-03-20T19:57:33.352Z,96260.72
2023-03-20T20:00:50.673Z,96262.47
2023-03-20T20:02:51.060Z,96259.91
2023-03-20T20:05:23.116Z,96261.63
2023-03-20T20:08:24.007Z,96264.31
2023-03-20T20:10:42.464Z,96263.09
2023-03-20T20:13:16.328Z,96264.97
2023-03-20T20:15:58.465Z,96265.16
2023-03-20T20:18:29.526Z,96260.47
2023-03-20T20:21:59.747Z,96265.97
2023-03-20T20:23:48.054Z,96262.81
2023-03-20T20:26:17.317Z,96267.13
2023-03-20T20:28:47.586Z,96260.38
2023-03-20T20:31:17.597Z,96261.31
2023-03-20T20:34:02.245Z,96259.88
2023-03-20T20:39:27.205Z,96265.19
2023-03-20T20:41:58.464Z,96260.00
2023-03-20T20:44:31.129Z,96267.44
2023-03-20T20:47:03.399Z,96267.63
2023-03-20T20:49:34.597Z,96266.75
2023-03-20T20:52:04.021Z,96261.81
2023-03-20T20:54:34.362Z,96262.31
2023-03-20T20:57:03.802Z,96259.06
2023-03-20T20:59:37.907Z,96260.69
2023-03-20T21:02:11.335Z,96264.97
2023-03-20T21:04:41.024Z,96259.25
2023-03-20T21:07:12.157Z,96261.28
2023-03-20T21:09:41.683Z,96252.22
2023-03-20T21:12:26.504Z,96264.28
2023-03-20T21:15:05.735Z,96264.97
2023-03-20T21:17:34.830Z,96267.09
2023-03-20T21:20:03.536Z,96275.03
2023-03-20T21:22:34.117Z,96277.41
2023-03-20T21:25:13.896Z,96271.47
2023-03-20T21:27:43.708Z,96271.59
2023-03-20T21:30:14.442Z,96275.66
2023-03-20T21:32:44.070Z,96274.56
2023-03-20T21:35:13.127Z,96269.56
2023-03-20T21:40:32.793Z,96276.69
2023-03-20T21:43:01.714Z,96274.75
2023-03-20T21:46:19.052Z,96270.91
2023-03-20T21:48:58.362Z,96265.06
2023-03-20T21:52:14.464Z,96259.25
2023-03-20T21:57:28.821Z,96261.69
2023-03-20T22:00:14.940Z,96264.41
2023-03-20T22:02:30.943Z,96267.78
2023-03-20T22:11:31.661Z,96272.75
2023-03-20T22:14:40.693Z,96264.94
2023-03-20T22:22:56.300Z,96258.28
2023-03-20T22:25:35.360Z,96253.47
2023-03-20T22:28:16.916Z,96255.94
2023-03-20T22:34:16.232Z,96247.34
2023-03-20T22:37:34.510Z,96244.00
2023-03-20T22:40:08.730Z,96243.28
2023-03-20T22:45:03.284Z,96245.69
2023-03-20T22:47:32.866Z,96240.97
2023-03-20T22:50:01.529Z,96235.47
2023-03-20T22:52:47.744Z,96238.09
2023-03-20T22:55:18.699Z,96236.47
2023-03-20T22:58:03.958Z,96237.19
2023-03-20T23:00:35.164Z,96248.72
2023-03-20T23:03:17.583Z,96249.34
2023-03-20T23:05:54.263Z,96248.75
2023-03-20T23:08:24.957Z,96241.63
2023-03-20T23:10:53.953Z,96243.91
2023-03-20T23:13:22.601Z,96237.59
2023-03-20T23:15:52.203Z,96241.75
2023-03-20T23:18:21.095Z,96246.56
2023-03-20T23:20:50.085Z,96238.63
2023-03-20T23:23:19.147Z,96240.97
2023-03-20T23:25:49.280Z,96239.88
2023-03-20T23:28:18.115Z,96231.38
2023-03-20T23:31:07.594Z,96233.94
2023-03-20T23:33:38.838Z,96229.53
2023-03-20T23:36:24.768Z,96226.78
2023-03-20T23:38:57.335Z,96236.78
2023-03-20T23:41:57.725Z,96225.56
2023-03-20T23:44:18.545Z,96215.97
2023-03-20T23:46:48.324Z,96220.47
2023-03-20T23:50:32.182Z,96222.50
2023-03-20T23:53:19.436Z,96220.25
2023-03-20T23:55:49.328Z,96215.34
2023-03-20T23:58:22.406Z,96219.72
